Time;durP1;ratioP1;P1;durP2;ratioP2;P2;SDS_P1;SDS_P2;PMS_P1;PMS_P2;Temp;Humidity;BMP_temperature;BMP_pressure;BME280_temperature;BME280_humidity;BME280_pressure;Samples;Min_cycle;Max_cycle;Signal;HPM_P1;HPM_P2
2023/08/20 00:01:28;;;;;;;10.55;7.05;;;;;;;;;;5034340;28;20047;-77
2023/08/20 00:04:14;;;;;;;10.45;7.72;;;;;;;;;;5034262;28;20045;-79
2023/08/20 00:06:59;;;;;;;10.90;8.48;;;;;;;;;;5011952;28;20045;-78
2023/08/20 00:09:45;;;;;;;11.40;7.78;;;;;;;;;;5034531;28;20045;-78
2023/08/20 00:12:31;;;;;;;13.27;8.23;;;;;;;;;;5033883;28;20049;-77
2023/08/20 00:15:17;;;;;;;19.80;7.80;;;;;;;;;;5034112;28;20045;-80
2023/08/20 00:18:04;;;;;;;11.07;8.18;;;;;;;;;;5034363;28;20049;-77
2023/08/20 00:20:50;;;;;;;10.27;7.35;;;;;;;;;;5033497;28;20041;-75
2023/08/20 00:23:36;;;;;;;9.82;8.25;;;;;;;;;;5033440;28;20045;-77
2023/08/20 00:26:22;;;;;;;11.35;8.13;;;;;;;;;;5034316;28;20049;-77
2023/08/20 00:29:07;;;;;;;9.25;8.00;;;;;;;;;;5034133;28;20057;-79
2023/08/20 00:31:55;;;;;;;12.18;7.82;;;;;;;;;;5039478;28;20047;-79
2023/08/20 00:34:40;;;;;;;12.40;8.00;;;;;;;;;;5040151;28;20457;-79
2023/08/20 00:37:26;;;;;;;9.52;8.00;;;;;;;;;;5033641;28;20420;-78
2023/08/20 00:40:11;;;;;;;12.52;8.38;;;;;;;;;;5039376;28;20045;-78
2023/08/20 00:42:57;;;;;;;11.40;8.30;;;;;;;;;;5039349;28;20422;-77
2023/08/20 00:45:43;;;;;;;13.23;8.10;;;;;;;;;;5040231;28;20045;-79
2023/08/20 00:48:29;;;;;;;9.50;7.90;;;;;;;;;;5040149;28;20401;-78
2023/08/20 00:51:14;;;;;;;13.88;7.50;;;;;;;;;;5046016;28;20056;-79
2023/08/20 00:54:01;;;;;;;10.55;7.65;;;;;;;;;;5040198;28;20053;-78
2023/08/20 00:56:49;;;;;;;10.20;7.95;;;;;;;;;;5039072;28;20049;-78
2023/08/20 00:59:34;;;;;;;9.50;7.65;;;;;;;;;;5040346;28;20049;-78
2023/08/20 01:02:20;;;;;;;13.30;8.52;;;;;;;;;;5040028;28;20045;-79
2023/08/20 01:05:09;;;;;;;9.15;7.40;;;;;;;;;;5045728;28;20424;-79
2023/08/20 01:08:04;;;;;;;11.43;7.38;;;;;;;;;;5039904;28;20400;-77
2023/08/20 01:11:05;;;;;;;7.85;7.05;;;;;;;;;;5039651;28;20053;-79
2023/08/20 01:13:50;;;;;;;10.85;7.57;;;;;;;;;;5049894;28;20054;-80
2023/08/20 01:16:36;;;;;;;11.95;7.38;;;;;;;;;;5049970;28;20050;-78
2023/08/20 01:19:23;;;;;;;9.45;7.35;;;;;;;;;;5050851;28;20046;-78
2023/08/20 01:22:29;;;;;;;10.88;7.40;;;;;;;;;;5050248;28;20045;-78
2023/08/20 01:25:37;;;;;;;11.25;7.55;;;;;;;;;;5050574;28;20393;-80
2023/08/20 01:28:32;;;;;;;12.23;7.80;;;;;;;;;;5042427;28;20049;-79
2023/08/20 01:31:18;;;;;;;10.10;7.55;;;;;;;;;;5042775;28;20054;-77
2023/08/20 01:34:03;;;;;;;10.38;7.88;;;;;;;;;;5042652;28;20053;-81
2023/08/20 01:36:49;;;;;;;12.25;7.38;;;;;;;;;;5038681;28;20053;-79
2023/08/20 01:39:34;;;;;;;13.07;7.97;;;;;;;;;;5031830;28;20065;-80
2023/08/20 01:42:20;;;;;;;12.73;8.00;;;;;;;;;;5045440;28;20408;-81
2023/08/20 01:45:07;;;;;;;13.07;7.63;;;;;;;;;;5039538;28;20038;-79
2023/08/20 01:47:52;;;;;;;10.80;7.72;;;;;;;;;;5045675;28;20038;-79
2023/08/20 01:50:38;;;;;;;9.32;7.82;;;;;;;;;;5039625;28;20041;-77
2023/08/20 01:53:23;;;;;;;14.63;7.47;;;;;;;;;;5036415;28;20488;-79
2023/08/20 01:56:13;;;;;;;15.30;8.02;;;;;;;;;;5036187;28;20053;-79
2023/08/20 01:58:58;;;;;;;13.43;8.02;;;;;;;;;;5027786;28;20038;-81
2023/08/20 02:01:44;;;;;;;9.43;7.47;;;;;;;;;;5023787;28;20409;-77
2023/08/20 02:04:30;;;;;;;11.55;7.47;;;;;;;;;;5041927;28;20034;-79
2023/08/20 02:07:17;;;;;;;11.13;7.75;;;;;;;;;;5042250;28;20045;-78
2023/08/20 02:10:02;;;;;;;10.43;7.68;;;;;;;;;;5027964;28;20049;-80
2023/08/20 02:12:47;;;;;;;13.60;7.68;;;;;;;;;;5027501;28;20049;-81
2023/08/20 02:15:35;;;;;;;10.60;8.35;;;;;;;;;;5041613;28;20388;-81
2023/08/20 02:18:21;;;;;;;7.93;7.00;;;;;;;;;;5041964;28;20045;-81
2023/08/20 02:21:06;;;;;;;8.23;7.30;;;;;;;;;;5041383;28;20045;-79
2023/08/20 02:23:52;;;;;;;12.07;7.25;;;;;;;;;;5035729;28;20045;-81
2023/08/20 02:26:40;;;;;;;10.82;7.15;;;;;;;;;;5035666;28;20393;-78
2023/08/20 02:29:25;;;;;;;11.07;7.00;;;;;;;;;;5035925;28;20098;-79
2023/08/20 02:32:10;;;;;;;13.95;7.53;;;;;;;;;;5041347;28;20049;-80
2023/08/20 02:34:55;;;;;;;11.10;7.03;;;;;;;;;;5035507;28;20404;-79
2023/08/20 02:37:44;;;;;;;10.70;7.35;;;;;;;;;;5041748;28;20045;-79
2023/08/20 02:40:31;;;;;;;13.20;7.15;;;;;;;;;;5035373;28;20045;-77
2023/08/20 02:43:16;;;;;;;8.13;7.10;;;;;;;;;;5035670;28;20046;-79
2023/08/20 02:46:02;;;;;;;9.25;6.78;;;;;;;;;;5041163;28;20053;-79
2023/08/20 02:48:47;;;;;;;11.85;7.95;;;;;;;;;;5035220;28;20083;-79
2023/08/20 02:51:32;;;;;;;11.98;7.63;;;;;;;;;;5035790;28;20049;-79
2023/08/20 02:54:18;;;;;;;15.82;9.10;;;;;;;;;;5026985;28;20045;-78
2023/08/20 02:57:04;;;;;;;11.32;8.43;;;;;;;;;;5026975;28;20049;-79
2023/08/20 02:59:48;;;;;;;11.02;9.07;;;;;;;;;;5026629;28;20054;-80
2023/08/20 03:02:35;;;;;;;12.43;10.32;;;;;;;;;;5040313;28;20481;-79
2023/08/20 03:05:20;;;;;;;13.80;10.30;;;;;;;;;;5040390;28;20042;-79
2023/08/20 03:08:06;;;;;;;14.57;10.32;;;;;;;;;;5035170;28;20049;-80
2023/08/20 03:10:52;;;;;;;10.82;8.85;;;;;;;;;;5035641;28;20057;-78
2023/08/20 03:13:37;;;;;;;9.20;8.25;;;;;;;;;;5040673;28;20049;-79
2023/08/20 03:16:23;;;;;;;11.35;8.95;;;;;;;;;;5040447;28;20057;-79
2023/08/20 03:19:07;;;;;;;12.63;8.82;;;;;;;;;;5035351;28;20054;-78
2023/08/20 03:21:53;;;;;;;13.57;9.07;;;;;;;;;;5020148;28;20057;-79
2023/08/20 03:24:38;;;;;;;15.63;9.60;;;;;;;;;;5035285;28;20041;-77
2023/08/20 03:27:24;;;;;;;14.05;9.80;;;;;;;;;;5027226;28;20057;-78
2023/08/20 03:30:10;;;;;;;14.00;8.65;;;;;;;;;;5034426;28;20041;-80
2023/08/20 03:32:56;;;;;;;9.35;7.85;;;;;;;;;;5040861;28;20392;-79
2023/08/20 03:35:41;;;;;;;9.55;7.93;;;;;;;;;;5034356;28;20420;-77
2023/08/20 03:38:26;;;;;;;14.10;8.20;;;;;;;;;;5034558;28;20041;-79
2023/08/20 03:41:13;;;;;;;10.32;8.00;;;;;;;;;;5040497;28;20469;-79
2023/08/20 03:43:59;;;;;;;12.10;8.50;;;;;;;;;;5039581;28;20049;-78
2023/08/20 03:46:44;;;;;;;10.80;8.10;;;;;;;;;;5040027;28;20075;-79
2023/08/20 03:49:31;;;;;;;11.73;8.32;;;;;;;;;;5026427;28;20401;-76
2023/08/20 03:52:16;;;;;;;12.45;8.45;;;;;;;;;;5034148;28;20037;-78
2023/08/20 03:55:03;;;;;;;11.98;8.27;;;;;;;;;;5040137;28;20049;-79
2023/08/20 03:57:48;;;;;;;10.48;8.15;;;;;;;;;;5025707;28;20049;-78
2023/08/20 04:00:36;;;;;;;13.63;8.75;;;;;;;;;;5038472;28;20469;-77
2023/08/20 04:03:21;;;;;;;12.27;8.75;;;;;;;;;;5025841;28;20041;-79
2023/08/20 04:06:07;;;;;;;10.63;8.80;;;;;;;;;;5039691;28;20041;-79
2023/08/20 04:08:52;;;;;;;13.05;8.93;;;;;;;;;;5034045;28;20045;-80
2023/08/20 04:11:37;;;;;;;9.93;8.52;;;;;;;;;;5039119;28;20050;-80
2023/08/20 04:14:22;;;;;;;12.35;7.95;;;;;;;;;;5040050;28;20053;-78
2023/08/20 04:17:08;;;;;;;11.98;8.23;;;;;;;;;;5039086;28;20045;-77
2023/08/20 04:19:54;;;;;;;9.77;8.07;;;;;;;;;;5039103;28;20045;-78
2023/08/20 04:22:40;;;;;;;13.40;9.02;;;;;;;;;;5033639;28;20045;-78
2023/08/20 04:25:24;;;;;;;12.10;8.93;;;;;;;;;;5039340;28;20068;-77
2023/08/20 04:28:11;;;;;;;11.75;9.10;;;;;;;;;;5039312;28;20405;-77
2023/08/20 04:30:56;;;;;;;15.23;9.27;;;;;;;;;;5025589;28;20473;-78
2023/08/20 04:33:46;;;;;;;14.25;9.95;;;;;;;;;;5012034;28;20053;-78
2023/08/20 04:36:34;;;;;;;15.50;9.70;;;;;;;;;;5039709;28;20671;-79
2023/08/20 04:39:19;;;;;;;12.23;8.45;;;;;;;;;;5033309;28;20049;-78
2023/08/20 04:42:09;;;;;;;12.73;8.70;;;;;;;;;;5025443;28;20041;-78
2023/08/20 04:44:55;;;;;;;18.52;12.43;;;;;;;;;;5033836;28;20492;-77
2023/08/20 04:47:40;;;;;;;16.38;10.55;;;;;;;;;;5038739;28;20049;-78
2023/08/20 04:50:27;;;;;;;13.32;9.52;;;;;;;;;;5025405;28;20045;-77
2023/08/20 04:53:12;;;;;;;16.50;10.05;;;;;;;;;;5024879;28;20484;-79
2023/08/20 04:55:58;;;;;;;15.65;11.15;;;;;;;;;;5025460;28;20045;-78
2023/08/20 04:58:43;;;;;;;21.63;13.07;;;;;;;;;;5033551;28;20049;-77
2023/08/20 05:01:29;;;;;;;16.75;11.30;;;;;;;;;;5034876;28;20053;-79
2023/08/20 05:04:14;;;;;;;16.75;10.15;;;;;;;;;;5038984;28;20049;-77
2023/08/20 05:06:59;;;;;;;11.32;8.68;;;;;;;;;;5039239;28;20473;-79
2023/08/20 05:09:44;;;;;;;15.75;9.13;;;;;;;;;;5039321;28;20404;-78
2023/08/20 05:12:30;;;;;;;10.38;8.20;;;;;;;;;;5038989;28;20046;-78
2023/08/20 05:15:15;;;;;;;12.90;8.75;;;;;;;;;;5033172;28;20051;-78
2023/08/20 05:18:01;;;;;;;10.63;7.90;;;;;;;;;;5033564;28;20046;-80
2023/08/20 05:20:46;;;;;;;13.18;7.82;;;;;;;;;;5038921;28;20415;-77
2023/08/20 05:23:32;;;;;;;10.57;7.30;;;;;;;;;;5038883;28;20049;-79
2023/08/20 05:26:17;;;;;;;14.70;7.85;;;;;;;;;;5039493;28;20049;-78
2023/08/20 05:29:03;;;;;;;10.43;7.57;;;;;;;;;;5042289;28;20404;-78
2023/08/20 05:31:49;;;;;;;8.18;7.00;;;;;;;;;;5029091;28;20392;-78
2023/08/20 05:34:35;;;;;;;10.73;6.75;;;;;;;;;;5028243;28;20480;-78
2023/08/20 05:37:19;;;;;;;9.10;7.20;;;;;;;;;;5028298;28;20400;-78
2023/08/20 05:40:08;;;;;;;10.98;7.57;;;;;;;;;;5042445;28;20046;-79
2023/08/20 05:42:54;;;;;;;12.45;7.70;;;;;;;;;;5028391;28;20054;-79
2023/08/20 05:45:39;;;;;;;11.32;7.50;;;;;;;;;;5041147;28;20053;-78
2023/08/20 05:48:26;;;;;;;12.52;7.70;;;;;;;;;;5017486;28;20045;-78
2023/08/20 05:51:11;;;;;;;10.20;7.95;;;;;;;;;;5021774;28;20046;-77
2023/08/20 05:54:01;;;;;;;14.57;8.30;;;;;;;;;;5026824;28;20045;-78
2023/08/20 05:56:47;;;;;;;12.27;6.95;;;;;;;;;;5034845;28;20046;-79
2023/08/20 05:59:32;;;;;;;11.50;7.88;;;;;;;;;;5024503;28;20045;-78
2023/08/20 06:02:18;;;;;;;11.43;7.57;;;;;;;;;;5016615;28;20053;-79
2023/08/20 06:05:07;;;;;;;14.45;7.05;;;;;;;;;;5008466;28;20042;-79
2023/08/20 06:07:53;;;;;;;10.23;7.97;;;;;;;;;;5025576;28;20042;-80
2023/08/20 06:10:39;;;;;;;14.07;8.32;;;;;;;;;;5016112;28;20045;-80
2023/08/20 06:13:24;;;;;;;10.35;7.78;;;;;;;;;;5019193;28;20441;-79
2023/08/20 06:16:10;;;;;;;11.27;8.07;;;;;;;;;;5021806;28;20046;-80
2023/08/20 06:18:57;;;;;;;9.10;8.00;;;;;;;;;;5020921;28;20493;-79
2023/08/20 06:21:42;;;;;;;10.65;8.45;;;;;;;;;;5025189;28;20049;-78
2023/08/20 06:24:27;;;;;;;11.32;8.55;;;;;;;;;;5019140;28;20049;-78
2023/08/20 06:27:13;;;;;;;13.68;8.32;;;;;;;;;;5016781;28;20469;-78
2023/08/20 06:30:00;;;;;;;9.30;7.72;;;;;;;;;;5008805;28;20037;-78
2023/08/20 06:32:46;;;;;;;12.57;8.05;;;;;;;;;;5026922;28;20049;-77
2023/08/20 06:35:31;;;;;;;12.10;8.73;;;;;;;;;;5035824;28;20057;-79
2023/08/20 06:38:16;;;;;;;11.07;8.10;;;;;;;;;;5020686;28;20045;-78
2023/08/20 06:41:02;;;;;;;19.40;7.90;;;;;;;;;;5026137;28;20038;-77
2023/08/20 06:43:46;;;;;;;11.55;8.60;;;;;;;;;;5027144;28;20049;-77
2023/08/20 06:46:32;;;;;;;16.00;8.40;;;;;;;;;;5034875;28;20049;-78
2023/08/20 06:49:17;;;;;;;9.10;7.55;;;;;;;;;;5027458;28;20050;-79
2023/08/20 06:52:03;;;;;;;11.35;8.15;;;;;;;;;;5017369;28;20042;-78
2023/08/20 06:54:48;;;;;;;10.82;8.05;;;;;;;;;;5021584;28;20045;-77
2023/08/20 06:57:33;;;;;;;10.60;7.68;;;;;;;;;;5022124;28;20054;-78
2023/08/20 07:00:19;;;;;;;9.43;7.70;;;;;;;;;;5014933;28;20046;-80
2023/08/20 07:03:04;;;;;;;9.63;8.00;;;;;;;;;;5008792;28;20125;-77
2023/08/20 07:05:50;;;;;;;9.02;7.57;;;;;;;;;;4999789;28;20046;-79
2023/08/20 07:08:36;;;;;;;9.43;7.38;;;;;;;;;;4994623;28;20489;-79
2023/08/20 07:11:22;;;;;;;13.20;7.90;;;;;;;;;;4995109;28;20043;-76
2023/08/20 07:14:07;;;;;;;12.52;8.10;;;;;;;;;;5007923;28;20046;-78
2023/08/20 07:16:53;;;;;;;10.05;7.32;;;;;;;;;;4995650;28;20046;-78
2023/08/20 07:19:38;;;;;;;12.73;8.43;;;;;;;;;;4995446;28;20098;-80
2023/08/20 07:22:24;;;;;;;10.95;8.43;;;;;;;;;;5001173;28;20046;-80
2023/08/20 07:25:10;;;;;;;15.30;7.78;;;;;;;;;;4995522;28;20042;-77
2023/08/20 07:27:59;;;;;;;12.77;8.05;;;;;;;;;;4995242;28;20058;-79
2023/08/20 07:30:44;;;;;;;14.57;8.13;;;;;;;;;;4995597;28;20470;-79
2023/08/20 07:33:29;;;;;;;15.13;8.82;;;;;;;;;;5000850;28;20058;-78
2023/08/20 07:36:15;;;;;;;8.80;7.68;;;;;;;;;;4995443;28;20050;-79
2023/08/20 07:39:01;;;;;;;16.25;10.00;;;;;;;;;;4995229;28;20050;-79
2023/08/20 07:41:46;;;;;;;11.55;8.27;;;;;;;;;;4994782;28;20034;-78
2023/08/20 07:44:32;;;;;;;12.23;8.10;;;;;;;;;;4994756;28;20042;-77
2023/08/20 07:47:17;;;;;;;14.23;8.65;;;;;;;;;;4995524;28;20046;-79
2023/08/20 07:50:05;;;;;;;9.27;7.72;;;;;;;;;;4995308;28;20049;-78
2023/08/20 07:52:50;;;;;;;10.75;7.75;;;;;;;;;;4994959;28;20063;-79
2023/08/20 07:55:36;;;;;;;11.05;8.13;;;;;;;;;;4995298;28;20429;-78
2023/08/20 07:58:22;;;;;;;8.88;7.38;;;;;;;;;;4995355;28;20050;-79
2023/08/20 08:01:07;;;;;;;10.45;7.50;;;;;;;;;;4995342;28;20042;-78
2023/08/20 08:03:53;;;;;;;11.82;8.30;;;;;;;;;;4994603;28;20050;-77
2023/08/20 08:06:38;;;;;;;12.60;8.32;;;;;;;;;;4994736;28;20042;-76
2023/08/20 08:09:29;;;;;;;8.88;7.57;;;;;;;;;;4994638;28;20046;-77
2023/08/20 08:12:14;;;;;;;13.20;8.25;;;;;;;;;;4995717;28;20058;-77
2023/08/20 08:15:00;;;;;;;9.63;8.00;;;;;;;;;;4994956;28;20054;-79
2023/08/20 08:17:46;;;;;;;15.90;8.60;;;;;;;;;;4994509;28;20054;-77
2023/08/20 08:20:32;;;;;;;14.23;8.35;;;;;;;;;;4994919;28;20038;-78
2023/08/20 08:23:17;;;;;;;19.25;9.52;;;;;;;;;;4994212;28;20046;-77
2023/08/20 08:26:02;;;;;;;11.48;8.32;;;;;;;;;;4995059;28;20046;-79
2023/08/20 08:28:48;;;;;;;17.33;8.25;;;;;;;;;;4994780;28;20046;-78
2023/08/20 08:31:34;;;;;;;14.90;7.55;;;;;;;;;;4994241;28;20473;-78
2023/08/20 08:34:19;;;;;;;11.70;8.18;;;;;;;;;;4994414;28;20054;-77
2023/08/20 08:37:05;;;;;;;11.45;7.70;;;;;;;;;;4993816;28;20046;-77
2023/08/20 08:39:50;;;;;;;16.42;8.68;;;;;;;;;;4994638;28;20485;-77
2023/08/20 08:42:36;;;;;;;14.00;7.30;;;;;;;;;;4994085;28;20401;-77
2023/08/20 08:45:22;;;;;;;11.93;7.63;;;;;;;;;;4993664;28;20050;-77
2023/08/20 08:48:08;;;;;;;10.10;6.38;;;;;;;;;;4994795;28;20046;-79
2023/08/20 08:50:55;;;;;;;7.75;6.90;;;;;;;;;;4994034;28;20405;-76
2023/08/20 08:53:44;;;;;;;12.20;7.90;;;;;;;;;;4994503;28;20051;-77
2023/08/20 08:56:29;;;;;;;16.65;8.05;;;;;;;;;;4994485;28;20058;-81
2023/08/20 08:59:14;;;;;;;10.00;7.38;;;;;;;;;;4993938;28;20046;-77
2023/08/20 09:02:00;;;;;;;11.25;7.55;;;;;;;;;;4994777;28;20055;-78
2023/08/20 09:04:46;;;;;;;11.00;7.40;;;;;;;;;;4997667;28;20046;-75
2023/08/20 09:07:31;;;;;;;9.75;7.63;;;;;;;;;;4998389;28;20042;-78
2023/08/20 09:10:18;;;;;;;12.02;7.57;;;;;;;;;;4998389;28;20474;-77
2023/08/20 09:13:04;;;;;;;12.27;7.35;;;;;;;;;;4997525;28;20042;-80
2023/08/20 09:15:52;;;;;;;12.30;7.55;;;;;;;;;;4998100;28;20058;-78
2023/08/20 09:18:40;;;;;;;10.23;7.03;;;;;;;;;;4997659;28;20054;-78
2023/08/20 09:21:29;;;;;;;10.82;6.78;;;;;;;;;;4998068;28;20054;-77
2023/08/20 09:24:15;;;;;;;15.07;7.32;;;;;;;;;;4997681;28;20050;-79
2023/08/20 09:27:03;;;;;;;13.60;7.40;;;;;;;;;;4997444;28;20044;-79
2023/08/20 09:29:51;;;;;;;9.93;6.57;;;;;;;;;;4997677;28;20426;-78
2023/08/20 09:32:36;;;;;;;9.85;6.28;;;;;;;;;;4992098;28;20047;-79
2023/08/20 09:35:22;;;;;;;13.95;7.10;;;;;;;;;;4988382;28;20054;-79
2023/08/20 09:38:08;;;;;;;12.27;7.15;;;;;;;;;;4984609;28;20398;-79
2023/08/20 09:40:56;;;;;;;9.13;6.32;;;;;;;;;;4987056;28;20050;-79
2023/08/20 09:43:42;;;;;;;12.50;6.63;;;;;;;;;;4996688;28;20050;-81
2023/08/20 09:46:31;;;;;;;8.05;6.20;;;;;;;;;;4996516;28;20050;-78
2023/08/20 09:49:19;;;;;;;7.45;6.22;;;;;;;;;;4997124;28;20050;-77
2023/08/20 09:52:07;;;;;;;8.15;6.30;;;;;;;;;;4996417;28;20047;-77
2023/08/20 09:55:03;;;;;;;8.85;6.03;;;;;;;;;;4996741;28;20042;-76
2023/08/20 09:57:49;;;;;;;10.55;6.15;;;;;;;;;;4995783;28;20054;-78
2023/08/20 10:00:35;;;;;;;9.93;6.15;;;;;;;;;;4996204;28;20046;-79
2023/08/20 10:03:21;;;;;;;10.68;7.35;;;;;;;;;;5013588;28;20386;-79
2023/08/20 10:06:07;;;;;;;10.68;7.25;;;;;;;;;;5016603;28;20045;-79
2023/08/20 10:08:53;;;;;;;17.40;6.35;;;;;;;;;;5016263;28;20041;-81
2023/08/20 10:11:40;;;;;;;10.95;6.22;;;;;;;;;;5016250;28;20050;-79
2023/08/20 10:14:25;;;;;;;15.20;6.18;;;;;;;;;;5015289;28;20049;-79
2023/08/20 10:17:12;;;;;;;9.45;6.13;;;;;;;;;;5016009;28;20041;-77
2023/08/20 10:19:58;;;;;;;10.75;6.20;;;;;;;;;;5016878;28;20473;-80
2023/08/20 10:22:45;;;;;;;8.63;6.22;;;;;;;;;;5015617;28;20042;-78
2023/08/20 10:25:30;;;;;;;7.45;6.22;;;;;;;;;;5016307;28;20042;-76
2023/08/20 10:28:26;;;;;;;8.82;6.30;;;;;;;;;;5016364;28;20042;-80
2023/08/20 10:31:13;;;;;;;8.75;5.93;;;;;;;;;;5016224;28;20067;-78
2023/08/20 10:33:58;;;;;;;13.18;5.57;;;;;;;;;;5008193;28;20469;-79
2023/08/20 10:36:43;;;;;;;11.73;6.38;;;;;;;;;;5007742;28;20049;-80
2023/08/20 10:39:29;;;;;;;8.52;6.03;;;;;;;;;;5016132;28;20046;-77
2023/08/20 10:42:22;;;;;;;10.38;6.20;;;;;;;;;;5016241;28;20045;-78
2023/08/20 10:45:10;;;;;;;10.32;6.38;;;;;;;;;;5015920;28;20050;-77
2023/08/20 10:47:57;;;;;;;12.02;6.20;;;;;;;;;;5015522;28;20042;-80
2023/08/20 10:50:43;;;;;;;8.05;5.80;;;;;;;;;;5015364;28;20050;-77
2023/08/20 10:53:29;;;;;;;10.52;5.95;;;;;;;;;;5015540;28;20049;-79
2023/08/20 10:56:16;;;;;;;10.82;6.18;;;;;;;;;;5015319;28;20045;-78
2023/08/20 10:59:07;;;;;;;9.23;6.00;;;;;;;;;;5016400;28;20038;-79
2023/08/20 11:01:54;;;;;;;17.48;5.90;;;;;;;;;;5015507;28;20045;-78
2023/08/20 11:04:40;;;;;;;9.75;6.22;;;;;;;;;;5021994;28;20050;-77
2023/08/20 11:07:27;;;;;;;9.63;6.25;;;;;;;;;;5015835;28;20038;-78
2023/08/20 11:10:17;;;;;;;11.32;5.75;;;;;;;;;;5015736;28;20041;-76
2023/08/20 11:13:03;;;;;;;10.57;6.13;;;;;;;;;;5015523;28;20053;-78
2023/08/20 11:15:48;;;;;;;10.02;6.13;;;;;;;;;;5015667;28;20062;-77
2023/08/20 11:18:34;;;;;;;9.82;5.80;;;;;;;;;;5015337;28;20045;-77
2023/08/20 11:21:19;;;;;;;8.15;5.68;;;;;;;;;;5015212;28;20042;-78
2023/08/20 11:24:06;;;;;;;8.02;5.90;;;;;;;;;;5015555;28;20486;-78
2023/08/20 11:26:55;;;;;;;8.77;6.00;;;;;;;;;;5014774;28;20041;-79
2023/08/20 11:29:44;;;;;;;10.75;5.75;;;;;;;;;;5015294;28;20046;-78
2023/08/20 11:32:30;;;;;;;11.63;5.65;;;;;;;;;;5015046;28;20042;-77
2023/08/20 11:35:17;;;;;;;7.65;5.32;;;;;;;;;;5015210;28;20046;-79
2023/08/20 11:38:05;;;;;;;8.98;5.68;;;;;;;;;;5015227;28;20038;-79
2023/08/20 11:40:51;;;;;;;13.95;5.47;;;;;;;;;;5014674;28;20045;-79
2023/08/20 11:43:37;;;;;;;10.25;5.45;;;;;;;;;;5006685;28;20049;-79
2023/08/20 11:46:23;;;;;;;8.02;5.40;;;;;;;;;;5014365;28;20046;-79
2023/08/20 11:49:10;;;;;;;13.13;5.80;;;;;;;;;;5015139;28;20037;-77
2023/08/20 11:51:56;;;;;;;7.40;5.53;;;;;;;;;;5014996;28;20042;-78
2023/08/20 11:54:42;;;;;;;10.05;5.43;;;;;;;;;;5014429;28;20054;-78
2023/08/20 11:57:31;;;;;;;10.00;5.57;;;;;;;;;;5014886;28;20050;-78
2023/08/20 12:00:28;;;;;;;12.02;5.13;;;;;;;;;;5014448;28;20046;-78
2023/08/20 12:03:13;;;;;;;7.70;5.45;;;;;;;;;;5014500;28;20050;-79
2023/08/20 12:05:58;;;;;;;11.82;5.50;;;;;;;;;;5014728;28;20369;-78
2023/08/20 12:08:44;;;;;;;9.18;5.28;;;;;;;;;;5014198;28;20045;-77
2023/08/20 12:11:30;;;;;;;9.60;5.18;;;;;;;;;;5014973;28;20042;-77
2023/08/20 12:14:18;;;;;;;9.05;5.35;;;;;;;;;;5014253;28;20050;-77
2023/08/20 12:17:04;;;;;;;9.38;5.57;;;;;;;;;;4999863;28;20469;-79
2023/08/20 12:19:49;;;;;;;12.43;5.53;;;;;;;;;;5014306;28;20046;-77
2023/08/20 12:22:35;;;;;;;10.13;5.28;;;;;;;;;;5013909;28;20441;-78
2023/08/20 12:25:20;;;;;;;8.80;5.85;;;;;;;;;;5013940;28;20473;-80
2023/08/20 12:28:05;;;;;;;21.48;5.22;;;;;;;;;;5014176;28;20057;-77
2023/08/20 12:30:51;;;;;;;10.93;4.90;;;;;;;;;;5014306;28;20381;-77
2023/08/20 12:33:36;;;;;;;11.63;5.20;;;;;;;;;;5013918;28;20046;-77
2023/08/20 12:36:22;;;;;;;10.05;5.10;;;;;;;;;;5013590;28;20054;-79
2023/08/20 12:39:07;;;;;;;12.55;5.65;;;;;;;;;;5013412;28;20490;-78
2023/08/20 12:41:53;;;;;;;7.97;5.40;;;;;;;;;;5011436;28;20453;-79
2023/08/20 12:44:38;;;;;;;10.50;5.38;;;;;;;;;;5013898;28;20389;-79
2023/08/20 12:47:24;;;;;;;8.52;4.88;;;;;;;;;;5014032;28;20045;-77
2023/08/20 12:50:10;;;;;;;8.73;4.88;;;;;;;;;;5013853;28;20038;-78
2023/08/20 12:52:55;;;;;;;7.25;4.85;;;;;;;;;;5014035;28;20058;-79
2023/08/20 12:55:40;;;;;;;9.70;5.00;;;;;;;;;;5013770;28;20054;-78
2023/08/20 12:58:25;;;;;;;5.75;4.63;;;;;;;;;;5014300;28;20054;-78
2023/08/20 13:01:11;;;;;;;10.88;4.82;;;;;;;;;;5012683;28;20413;-77
2023/08/20 13:04:21;;;;;;;8.77;4.95;;;;;;;;;;4999107;28;20046;-79
2023/08/20 13:07:06;;;;;;;8.60;4.90;;;;;;;;;;5012619;28;20058;-79
2023/08/20 13:09:52;;;;;;;7.07;5.00;;;;;;;;;;5013353;28;20037;-80
2023/08/20 13:12:48;;;;;;;8.98;4.70;;;;;;;;;;5011194;28;20042;-78
2023/08/20 13:15:34;;;;;;;8.82;4.65;;;;;;;;;;4999551;28;20050;-78
2023/08/20 13:18:24;;;;;;;7.80;4.70;;;;;;;;;;4994484;28;20042;-79
2023/08/20 13:21:09;;;;;;;8.63;4.75;;;;;;;;;;5007625;28;20397;-79
2023/08/20 13:23:54;;;;;;;6.13;4.75;;;;;;;;;;5020295;28;20050;-79
2023/08/20 13:26:40;;;;;;;9.55;4.50;;;;;;;;;;5013108;28;20038;-79
2023/08/20 13:29:26;;;;;;;9.32;4.50;;;;;;;;;;5013056;28;20046;-78
2023/08/20 13:32:11;;;;;;;9.10;4.47;;;;;;;;;;5012209;28;20058;-78
2023/08/20 13:34:57;;;;;;;9.02;4.75;;;;;;;;;;5013344;28;20050;-77
2023/08/20 13:37:43;;;;;;;5.60;4.35;;;;;;;;;;5013534;28;20050;-77
2023/08/20 13:40:28;;;;;;;10.18;4.43;;;;;;;;;;5013375;28;20046;-78
2023/08/20 13:43:14;;;;;;;12.75;5.32;;;;;;;;;;4993392;28;20486;-78
2023/08/20 13:45:59;;;;;;;7.10;4.60;;;;;;;;;;4993208;28;20035;-79
2023/08/20 13:48:45;;;;;;;6.60;4.32;;;;;;;;;;4994173;28;20058;-77
2023/08/20 13:51:31;;;;;;;6.78;4.18;;;;;;;;;;4996865;28;20042;-79
2023/08/20 13:54:16;;;;;;;8.68;4.32;;;;;;;;;;4997906;28;20042;-77
2023/08/20 13:57:03;;;;;;;9.40;4.47;;;;;;;;;;5024399;28;20045;-79
2023/08/20 13:59:49;;;;;;;9.32;4.32;;;;;;;;;;5033776;28;20041;-77
2023/08/20 14:02:34;;;;;;;8.75;4.60;;;;;;;;;;5031032;28;20396;-79
2023/08/20 14:05:19;;;;;;;6.85;4.38;;;;;;;;;;5036441;28;20049;-76
2023/08/20 14:08:05;;;;;;;11.27;4.80;;;;;;;;;;5036553;28;20050;-76
2023/08/20 14:10:51;;;;;;;7.55;4.80;;;;;;;;;;5036639;28;20384;-78
2023/08/20 14:13:36;;;;;;;9.82;5.95;;;;;;;;;;5042615;28;20049;-78
2023/08/20 14:16:22;;;;;;;10.70;4.90;;;;;;;;;;5036387;28;20045;-81
2023/08/20 14:19:07;;;;;;;12.13;4.78;;;;;;;;;;5028618;28;20045;-77
2023/08/20 14:21:53;;;;;;;10.20;4.75;;;;;;;;;;5035755;28;20046;-78
2023/08/20 14:24:38;;;;;;;13.52;4.50;;;;;;;;;;5035142;28;20041;-77
2023/08/20 14:27:24;;;;;;;9.35;4.60;;;;;;;;;;5020741;28;20041;-79
2023/08/20 14:30:10;;;;;;;9.30;4.60;;;;;;;;;;5036085;28;20041;-77
2023/08/20 14:32:56;;;;;;;7.45;4.18;;;;;;;;;;5015675;28;20046;-76
2023/08/20 14:35:42;;;;;;;9.38;3.72;;;;;;;;;;5015757;28;20061;-78
2023/08/20 14:38:29;;;;;;;9.50;4.13;;;;;;;;;;5019514;28;20042;-78
2023/08/20 14:41:15;;;;;;;7.80;3.90;;;;;;;;;;5018471;28;20478;-77
2023/08/20 14:44:01;;;;;;;7.32;4.18;;;;;;;;;;5020007;28;20054;-77
2023/08/20 14:46:46;;;;;;;5.00;4.03;;;;;;;;;;5019380;28;20041;-79
2023/08/20 14:49:32;;;;;;;5.72;4.32;;;;;;;;;;5019850;28;20042;-77
2023/08/20 14:52:17;;;;;;;4.97;3.72;;;;;;;;;;5017927;28;20045;-78
2023/08/20 14:55:04;;;;;;;8.30;4.28;;;;;;;;;;4996771;28;20061;-77
2023/08/20 14:57:49;;;;;;;6.43;4.10;;;;;;;;;;5011972;28;20038;-77
2023/08/20 15:00:35;;;;;;;7.85;4.22;;;;;;;;;;5009903;28;20049;-78
2023/08/20 15:03:21;;;;;;;5.18;4.10;;;;;;;;;;5009646;28;20046;-78
2023/08/20 15:06:06;;;;;;;9.15;3.90;;;;;;;;;;5007527;28;20050;-76
2023/08/20 15:08:53;;;;;;;8.35;4.43;;;;;;;;;;5006523;28;20046;-77
2023/08/20 15:11:39;;;;;;;9.60;4.13;;;;;;;;;;5006472;28;20493;-80
2023/08/20 15:14:25;;;;;;;6.35;4.40;;;;;;;;;;5008030;28;20050;-78
2023/08/20 15:17:10;;;;;;;8.25;3.97;;;;;;;;;;5006391;28;20556;-80
2023/08/20 15:19:56;;;;;;;5.28;3.90;;;;;;;;;;5007759;28;20049;-81
2023/08/20 15:22:42;;;;;;;6.57;3.78;;;;;;;;;;4997332;28;20265;-76
2023/08/20 15:25:28;;;;;;;6.95;4.15;;;;;;;;;;4979063;28;20050;-79
2023/08/20 15:28:14;;;;;;;8.40;4.70;;;;;;;;;;5007452;28;20050;-75
2023/08/20 15:31:01;;;;;;;8.27;5.00;;;;;;;;;;4999482;28;20054;-79
2023/08/20 15:33:49;;;;;;;7.60;4.32;;;;;;;;;;4996890;28;20053;-77
2023/08/20 15:36:37;;;;;;;5.82;4.13;;;;;;;;;;5004811;28;20061;-78
2023/08/20 15:39:24;;;;;;;6.90;4.03;;;;;;;;;;5006266;28;20478;-76
2023/08/20 15:42:15;;;;;;;10.00;4.43;;;;;;;;;;5006468;28;20049;-78
2023/08/20 15:45:07;;;;;;;5.85;4.30;;;;;;;;;;5007632;28;20054;-77
2023/08/20 15:47:54;;;;;;;6.72;4.45;;;;;;;;;;5008634;28;20042;-77
2023/08/20 15:50:41;;;;;;;7.88;4.30;;;;;;;;;;4998806;28;20428;-77
2023/08/20 15:53:26;;;;;;;4.97;4.07;;;;;;;;;;5007087;28;20050;-77
2023/08/20 15:56:12;;;;;;;12.38;4.57;;;;;;;;;;5007234;28;20054;-78
2023/08/20 15:58:57;;;;;;;8.35;4.20;;;;;;;;;;5006528;28;20050;-78
2023/08/20 16:01:43;;;;;;;6.90;4.20;;;;;;;;;;5006205;28;21345;-76
2023/08/20 16:04:29;;;;;;;6.32;3.95;;;;;;;;;;5006602;28;20038;-78
2023/08/20 16:07:16;;;;;;;7.05;4.50;;;;;;;;;;5007986;28;20038;-76
2023/08/20 16:10:07;;;;;;;5.60;4.07;;;;;;;;;;5007491;28;20050;-78
2023/08/20 16:13:05;;;;;;;7.25;4.50;;;;;;;;;;5006080;28;20037;-77
2023/08/20 16:15:55;;;;;;;6.85;4.05;;;;;;;;;;4993866;28;20041;-79
2023/08/20 16:18:42;;;;;;;7.47;3.97;;;;;;;;;;5008311;28;20034;-80
2023/08/20 16:21:29;;;;;;;6.85;4.20;;;;;;;;;;5007530;28;20045;-77
2023/08/20 16:24:14;;;;;;;9.38;4.10;;;;;;;;;;5007538;28;20034;-78
2023/08/20 16:26:59;;;;;;;7.60;4.10;;;;;;;;;;5004113;28;20050;-79